Portada
METAR-TAF:

METAR-TAF

Aeroports :

Pattani, Tailàndia

latitud: 06-47-08N, longitud: 101-09-13E, altitud: 2 m

METAR: manca

Hora: 14:37 (07:37 UTC)

Pronòstic

L'informe es va fer fa 2 hores i 37 minuts, a les 05:00 UTC
Pronòstic vàlid del 23 a les 06 UTC al 24 a les 06 UTC
Vent 6 kt del Est
Visibilitat 10 km o més
Núvols disperses a una alçada de 2000 ft
Temporalment
l' 23 a les 06 UTC al 23 a les 12 UTC
Vent 10 kt amb direcció variable amb ràfegues de 20 kt
Visibilitat: 3000 m
Escasses núvols a una alçada de 1600 ft, Cumulonimbus.
Núvols disperses a una alçada de 1800 ft
Cel ennuvolat a una alçada de 10000 ft
tempesta, pluja
Temporalment
l' 23 a les 12 UTC al 23 a les 18 UTC
Visibilitat: 5000 m
Núvols disperses a una alçada de 1500 ft
Cel ennuvolat a una alçada de 10000 ft
pluja

TAF: VTSK 230500Z 2306/2406 09006KT 9999 SCT020 TEMPO 2306/2312 VRB10G20KT 3000 TSRA FEW016CB SCT018 BKN100 TEMPO 2312/2318 5000 RA SCT015 BKN100

Observacions i pronòstics meteorològics de més de 4000 aeroports (METAR i TAF).

Les estacions disponibles són els punts grocs i vermells al mapa.

Posi el ratolí al punt desitjat per veure el nom de l'estació.

Feu clic per veure les observacions i els pronòstics meteorològics.

Per canviar el mapa: feu clic els botons verds amb una creu de color negre per apropar; al botó verd amb un guió per allunyar la imatge; o en les fletxes verdes per a mapes adjacents.


METAR-TAF: